sensor_id;sensor_type;location;lat;lon;timestamp;P1;durP1;ratioP1;P2;durP2;ratioP2
50010;SDS011;35899;50.352;19.390;2023-12-04T00:01:42;79.00;;;30.10;;
50010;SDS011;35899;50.352;19.390;2023-12-04T00:04:10;72.10;;;29.80;;
50010;SDS011;35899;50.352;19.390;2023-12-04T00:06:37;77.60;;;32.60;;
50010;SDS011;35899;50.352;19.390;2023-12-04T00:09:04;81.60;;;33.90;;
50010;SDS011;35899;50.352;19.390;2023-12-04T00:11:30;84.70;;;35.10;;
50010;SDS011;35899;50.352;19.390;2023-12-04T00:13:59;82.80;;;35.50;;
50010;SDS011;35899;50.352;19.390;2023-12-04T00:16:26;87.50;;;36.00;;
50010;SDS011;35899;50.352;19.390;2023-12-04T00:18:53;88.80;;;36.70;;
50010;SDS011;35899;50.352;19.390;2023-12-04T00:21:19;89.30;;;35.50;;
50010;SDS011;35899;50.352;19.390;2023-12-04T00:23:46;83.00;;;34.90;;
50010;SDS011;35899;50.352;19.390;2023-12-04T00:26:13;84.40;;;34.20;;
50010;SDS011;35899;50.352;19.390;2023-12-04T00:28:40;78.70;;;33.20;;
50010;SDS011;35899;50.352;19.390;2023-12-04T00:31:08;92.60;;;37.20;;
50010;SDS011;35899;50.352;19.390;2023-12-04T00:33:35;81.20;;;36.00;;
50010;SDS011;35899;50.352;19.390;2023-12-04T00:36:02;81.90;;;34.10;;
50010;SDS011;35899;50.352;19.390;2023-12-04T00:38:28;81.40;;;34.70;;
50010;SDS011;35899;50.352;19.390;2023-12-04T00:40:56;85.80;;;35.80;;
50010;SDS011;35899;50.352;19.390;2023-12-04T00:43:22;89.80;;;37.10;;
50010;SDS011;35899;50.352;19.390;2023-12-04T00:45:49;81.60;;;35.10;;
50010;SDS011;35899;50.352;19.390;2023-12-04T00:48:16;81.80;;;34.80;;
50010;SDS011;35899;50.352;19.390;2023-12-04T00:50:43;93.30;;;38.20;;
50010;SDS011;35899;50.352;19.390;2023-12-04T00:53:28;92.00;;;38.90;;
50010;SDS011;35899;50.352;19.390;2023-12-04T00:55:54;91.30;;;39.00;;
50010;SDS011;35899;50.352;19.390;2023-12-04T00:58:21;90.80;;;37.50;;
50010;SDS011;35899;50.352;19.390;2023-12-04T01:00:47;91.50;;;38.20;;
50010;SDS011;35899;50.352;19.390;2023-12-04T01:03:14;99.10;;;38.80;;
50010;SDS011;35899;50.352;19.390;2023-12-04T01:05:41;99.20;;;38.80;;
50010;SDS011;35899;50.352;19.390;2023-12-04T01:08:08;98.70;;;38.20;;
50010;SDS011;35899;50.352;19.390;2023-12-04T01:10:38;94.40;;;38.90;;
50010;SDS011;35899;50.352;19.390;2023-12-04T01:13:05;93.70;;;38.70;;
50010;SDS011;35899;50.352;19.390;2023-12-04T01:15:32;86.20;;;36.10;;
50010;SDS011;35899;50.352;19.390;2023-12-04T01:17:59;82.50;;;34.70;;
50010;SDS011;35899;50.352;19.390;2023-12-04T01:20:26;92.30;;;37.10;;
50010;SDS011;35899;50.352;19.390;2023-12-04T01:22:53;86.40;;;36.60;;
50010;SDS011;35899;50.352;19.390;2023-12-04T01:25:20;160.10;;;48.30;;
50010;SDS011;35899;50.352;19.390;2023-12-04T01:27:46;603.00;;;129.50;;
50010;SDS011;35899;50.352;19.390;2023-12-04T01:30:13;508.40;;;113.50;;
50010;SDS011;35899;50.352;19.390;2023-12-04T01:32:42;116.00;;;43.30;;
50010;SDS011;35899;50.352;19.390;2023-12-04T01:35:09;119.30;;;41.90;;
50010;SDS011;35899;50.352;19.390;2023-12-04T01:37:36;110.50;;;40.90;;
50010;SDS011;35899;50.352;19.390;2023-12-04T01:40:03;101.10;;;38.10;;
50010;SDS011;35899;50.352;19.390;2023-12-04T01:42:30;237.70;;;59.50;;
50010;SDS011;35899;50.352;19.390;2023-12-04T01:44:58;110.80;;;38.20;;
50010;SDS011;35899;50.352;19.390;2023-12-04T01:47:24;99.10;;;38.80;;
50010;SDS011;35899;50.352;19.390;2023-12-04T01:49:51;95.50;;;37.30;;
50010;SDS011;35899;50.352;19.390;2023-12-04T01:52:18;97.20;;;39.00;;
50010;SDS011;35899;50.352;19.390;2023-12-04T01:54:45;93.90;;;37.80;;
50010;SDS011;35899;50.352;19.390;2023-12-04T01:57:11;90.50;;;36.30;;
50010;SDS011;35899;50.352;19.390;2023-12-04T01:59:38;96.40;;;37.50;;
50010;SDS011;35899;50.352;19.390;2023-12-04T02:02:05;96.10;;;37.60;;
50010;SDS011;35899;50.352;19.390;2023-12-04T02:04:32;85.00;;;36.40;;
50010;SDS011;35899;50.352;19.390;2023-12-04T02:06:59;99.40;;;39.00;;
50010;SDS011;35899;50.352;19.390;2023-12-04T02:09:26;91.10;;;36.50;;
50010;SDS011;35899;50.352;19.390;2023-12-04T02:11:53;105.70;;;38.30;;
50010;SDS011;35899;50.352;19.390;2023-12-04T02:14:24;132.30;;;42.40;;
50010;SDS011;35899;50.352;19.390;2023-12-04T02:16:51;103.20;;;40.00;;
50010;SDS011;35899;50.352;19.390;2023-12-04T02:19:20;96.80;;;38.50;;
50010;SDS011;35899;50.352;19.390;2023-12-04T02:21:48;93.30;;;37.00;;
50010;SDS011;35899;50.352;19.390;2023-12-04T02:24:15;147.90;;;46.00;;
50010;SDS011;35899;50.352;19.390;2023-12-04T02:26:47;96.70;;;38.90;;
50010;SDS011;35899;50.352;19.390;2023-12-04T02:29:21;99.70;;;40.20;;
50010;SDS011;35899;50.352;19.390;2023-12-04T02:31:56;100.70;;;38.60;;
50010;SDS011;35899;50.352;19.390;2023-12-04T02:34:24;96.80;;;36.10;;
50010;SDS011;35899;50.352;19.390;2023-12-04T02:36:53;97.40;;;37.80;;
50010;SDS011;35899;50.352;19.390;2023-12-04T02:39:20;91.90;;;35.90;;
50010;SDS011;35899;50.352;19.390;2023-12-04T02:41:47;94.60;;;37.00;;
50010;SDS011;35899;50.352;19.390;2023-12-04T02:44:14;88.00;;;35.00;;
50010;SDS011;35899;50.352;19.390;2023-12-04T02:46:41;88.20;;;35.50;;
50010;SDS011;35899;50.352;19.390;2023-12-04T02:49:07;86.40;;;35.60;;
50010;SDS011;35899;50.352;19.390;2023-12-04T02:51:34;85.80;;;34.50;;
50010;SDS011;35899;50.352;19.390;2023-12-04T02:54:01;83.80;;;34.60;;
50010;SDS011;35899;50.352;19.390;2023-12-04T02:56:28;84.00;;;33.70;;
50010;SDS011;35899;50.352;19.390;2023-12-04T02:58:55;87.70;;;37.80;;
50010;SDS011;35899;50.352;19.390;2023-12-04T03:01:31;87.10;;;34.10;;
50010;SDS011;35899;50.352;19.390;2023-12-04T03:04:01;80.20;;;31.40;;
50010;SDS011;35899;50.352;19.390;2023-12-04T03:06:28;83.80;;;33.50;;
50010;SDS011;35899;50.352;19.390;2023-12-04T03:08:55;87.40;;;34.50;;
50010;SDS011;35899;50.352;19.390;2023-12-04T03:11:21;86.90;;;34.60;;
50010;SDS011;35899;50.352;19.390;2023-12-04T03:13:48;91.70;;;36.20;;
50010;SDS011;35899;50.352;19.390;2023-12-04T03:16:15;88.80;;;34.60;;
50010;SDS011;35899;50.352;19.390;2023-12-04T03:18:45;79.10;;;31.90;;
50010;SDS011;35899;50.352;19.390;2023-12-04T03:21:12;77.90;;;30.70;;
50010;SDS011;35899;50.352;19.390;2023-12-04T03:23:39;78.70;;;32.30;;
50010;SDS011;35899;50.352;19.390;2023-12-04T03:26:06;84.10;;;33.60;;
50010;SDS011;35899;50.352;19.390;2023-12-04T03:28:33;88.60;;;34.30;;
50010;SDS011;35899;50.352;19.390;2023-12-04T03:31:00;90.60;;;33.10;;
50010;SDS011;35899;50.352;19.390;2023-12-04T03:33:28;82.80;;;33.30;;
50010;SDS011;35899;50.352;19.390;2023-12-04T03:35:55;76.40;;;29.10;;
50010;SDS011;35899;50.352;19.390;2023-12-04T03:38:22;80.60;;;31.30;;
50010;SDS011;35899;50.352;19.390;2023-12-04T03:40:48;83.20;;;33.20;;
50010;SDS011;35899;50.352;19.390;2023-12-04T03:43:19;74.10;;;29.20;;
50010;SDS011;35899;50.352;19.390;2023-12-04T03:45:46;77.70;;;32.10;;
50010;SDS011;35899;50.352;19.390;2023-12-04T03:48:13;81.20;;;32.70;;
50010;SDS011;35899;50.352;19.390;2023-12-04T03:50:40;71.50;;;27.00;;
50010;SDS011;35899;50.352;19.390;2023-12-04T03:53:07;71.50;;;28.80;;
50010;SDS011;35899;50.352;19.390;2023-12-04T03:55:33;75.30;;;32.70;;
50010;SDS011;35899;50.352;19.390;2023-12-04T03:58:00;75.70;;;31.50;;
50010;SDS011;35899;50.352;19.390;2023-12-04T04:00:27;70.50;;;31.40;;
50010;SDS011;35899;50.352;19.390;2023-12-04T04:02:54;65.70;;;27.50;;
50010;SDS011;35899;50.352;19.390;2023-12-04T04:05:20;69.00;;;30.10;;
50010;SDS011;35899;50.352;19.390;2023-12-04T04:07:47;66.10;;;25.50;;
50010;SDS011;35899;50.352;19.390;2023-12-04T04:10:16;57.60;;;23.90;;
50010;SDS011;35899;50.352;19.390;2023-12-04T04:12:42;62.50;;;24.00;;
50010;SDS011;35899;50.352;19.390;2023-12-04T04:15:09;63.10;;;25.60;;
50010;SDS011;35899;50.352;19.390;2023-12-04T04:17:36;64.50;;;26.20;;
50010;SDS011;35899;50.352;19.390;2023-12-04T04:20:03;64.80;;;26.80;;
50010;SDS011;35899;50.352;19.390;2023-12-04T04:22:30;56.60;;;23.10;;
50010;SDS011;35899;50.352;19.390;2023-12-04T04:24:57;64.00;;;25.70;;
50010;SDS011;35899;50.352;19.390;2023-12-04T04:27:24;59.10;;;24.50;;
50010;SDS011;35899;50.352;19.390;2023-12-04T04:29:51;63.10;;;24.60;;
50010;SDS011;35899;50.352;19.390;2023-12-04T04:32:17;60.00;;;22.90;;
50010;SDS011;35899;50.352;19.390;2023-12-04T04:34:44;61.40;;;23.50;;
50010;SDS011;35899;50.352;19.390;2023-12-04T04:37:11;58.00;;;24.40;;
50010;SDS011;35899;50.352;19.390;2023-12-04T04:39:42;56.80;;;23.20;;
50010;SDS011;35899;50.352;19.390;2023-12-04T04:42:08;62.70;;;24.70;;
50010;SDS011;35899;50.352;19.390;2023-12-04T04:44:35;65.70;;;25.40;;
50010;SDS011;35899;50.352;19.390;2023-12-04T04:47:02;67.10;;;24.40;;
50010;SDS011;35899;50.352;19.390;2023-12-04T04:49:28;62.40;;;25.30;;
50010;SDS011;35899;50.352;19.390;2023-12-04T04:51:55;60.20;;;23.50;;
50010;SDS011;35899;50.352;19.390;2023-12-04T04:54:22;60.60;;;25.30;;
50010;SDS011;35899;50.352;19.390;2023-12-04T04:56:49;57.10;;;22.30;;
50010;SDS011;35899;50.352;19.390;2023-12-04T04:59:15;59.50;;;22.60;;
50010;SDS011;35899;50.352;19.390;2023-12-04T05:01:42;64.10;;;22.70;;
50010;SDS011;35899;50.352;19.390;2023-12-04T05:04:09;61.90;;;25.50;;
50010;SDS011;35899;50.352;19.390;2023-12-04T05:06:36;55.60;;;23.00;;
50010;SDS011;35899;50.352;19.390;2023-12-04T05:09:02;68.50;;;25.50;;
50010;SDS011;35899;50.352;19.390;2023-12-04T05:11:29;64.30;;;23.90;;
50010;SDS011;35899;50.352;19.390;2023-12-04T05:13:56;70.20;;;25.80;;
50010;SDS011;35899;50.352;19.390;2023-12-04T05:16:22;61.10;;;23.70;;
50010;SDS011;35899;50.352;19.390;2023-12-04T05:18:49;66.40;;;25.20;;
50010;SDS011;35899;50.352;19.390;2023-12-04T05:21:16;62.60;;;24.60;;
50010;SDS011;35899;50.352;19.390;2023-12-04T05:23:43;66.90;;;24.30;;
50010;SDS011;35899;50.352;19.390;2023-12-04T05:26:10;66.50;;;23.40;;
50010;SDS011;35899;50.352;19.390;2023-12-04T05:28:37;59.00;;;21.30;;
50010;SDS011;35899;50.352;19.390;2023-12-04T05:31:04;54.70;;;20.70;;
50010;SDS011;35899;50.352;19.390;2023-12-04T05:33:31;61.10;;;24.20;;
50010;SDS011;35899;50.352;19.390;2023-12-04T05:35:59;54.30;;;21.40;;
50010;SDS011;35899;50.352;19.390;2023-12-04T05:38:26;54.50;;;22.00;;
50010;SDS011;35899;50.352;19.390;2023-12-04T05:40:53;59.10;;;22.70;;
50010;SDS011;35899;50.352;19.390;2023-12-04T05:43:20;64.40;;;23.80;;
50010;SDS011;35899;50.352;19.390;2023-12-04T05:45:47;75.30;;;26.80;;
50010;SDS011;35899;50.352;19.390;2023-12-04T05:48:17;71.60;;;25.90;;
50010;SDS011;35899;50.352;19.390;2023-12-04T05:50:43;64.00;;;24.00;;
50010;SDS011;35899;50.352;19.390;2023-12-04T05:53:10;67.60;;;23.60;;
50010;SDS011;35899;50.352;19.390;2023-12-04T05:55:37;65.20;;;25.00;;
50010;SDS011;35899;50.352;19.390;2023-12-04T05:58:04;64.50;;;25.10;;
50010;SDS011;35899;50.352;19.390;2023-12-04T06:00:31;71.00;;;26.50;;
50010;SDS011;35899;50.352;19.390;2023-12-04T06:02:57;90.80;;;31.90;;
50010;SDS011;35899;50.352;19.390;2023-12-04T06:05:24;96.70;;;34.50;;
50010;SDS011;35899;50.352;19.390;2023-12-04T06:07:51;116.80;;;40.30;;
50010;SDS011;35899;50.352;19.390;2023-12-04T06:10:18;82.10;;;31.30;;
50010;SDS011;35899;50.352;19.390;2023-12-04T06:12:50;85.20;;;31.50;;
50010;SDS011;35899;50.352;19.390;2023-12-04T06:15:17;88.40;;;33.00;;
50010;SDS011;35899;50.352;19.390;2023-12-04T06:17:44;84.10;;;31.70;;
50010;SDS011;35899;50.352;19.390;2023-12-04T06:20:11;78.50;;;28.10;;
50010;SDS011;35899;50.352;19.390;2023-12-04T06:22:38;69.10;;;27.40;;
50010;SDS011;35899;50.352;19.390;2023-12-04T06:25:05;74.00;;;26.90;;
50010;SDS011;35899;50.352;19.390;2023-12-04T06:27:33;71.50;;;27.30;;
50010;SDS011;35899;50.352;19.390;2023-12-04T06:30:00;64.90;;;24.50;;
50010;SDS011;35899;50.352;19.390;2023-12-04T06:32:27;61.10;;;25.00;;
50010;SDS011;35899;50.352;19.390;2023-12-04T06:34:54;55.90;;;23.30;;
50010;SDS011;35899;50.352;19.390;2023-12-04T06:37:21;53.10;;;22.80;;
50010;SDS011;35899;50.352;19.390;2023-12-04T06:39:48;58.30;;;22.80;;
50010;SDS011;35899;50.352;19.390;2023-12-04T06:42:34;57.70;;;21.90;;
50010;SDS011;35899;50.352;19.390;2023-12-04T06:45:02;53.80;;;22.30;;
50010;SDS011;35899;50.352;19.390;2023-12-04T06:47:31;59.10;;;21.20;;
50010;SDS011;35899;50.352;19.390;2023-12-04T06:49:58;62.00;;;23.90;;
50010;SDS011;35899;50.352;19.390;2023-12-04T06:52:25;58.00;;;22.90;;
50010;SDS011;35899;50.352;19.390;2023-12-04T06:54:51;66.90;;;23.70;;
50010;SDS011;35899;50.352;19.390;2023-12-04T06:57:18;59.40;;;22.10;;
50010;SDS011;35899;50.352;19.390;2023-12-04T06:59:45;57.60;;;22.10;;
50010;SDS011;35899;50.352;19.390;2023-12-04T07:02:12;58.30;;;21.50;;
50010;SDS011;35899;50.352;19.390;2023-12-04T07:04:39;60.60;;;22.10;;
50010;SDS011;35899;50.352;19.390;2023-12-04T07:07:06;61.50;;;23.60;;
50010;SDS011;35899;50.352;19.390;2023-12-04T07:09:33;63.30;;;24.20;;
50010;SDS011;35899;50.352;19.390;2023-12-04T07:12:00;59.20;;;23.50;;
50010;SDS011;35899;50.352;19.390;2023-12-04T07:14:27;56.50;;;20.90;;
50010;SDS011;35899;50.352;19.390;2023-12-04T07:16:54;62.10;;;22.70;;
50010;SDS011;35899;50.352;19.390;2023-12-04T07:19:20;73.40;;;26.00;;
50010;SDS011;35899;50.352;19.390;2023-12-04T07:21:48;66.40;;;26.20;;
50010;SDS011;35899;50.352;19.390;2023-12-04T07:24:15;69.00;;;24.70;;
50010;SDS011;35899;50.352;19.390;2023-12-04T07:26:42;70.90;;;27.40;;
50010;SDS011;35899;50.352;19.390;2023-12-04T07:29:09;67.20;;;26.40;;
50010;SDS011;35899;50.352;19.390;2023-12-04T07:31:37;70.30;;;24.90;;
50010;SDS011;35899;50.352;19.390;2023-12-04T07:34:04;65.30;;;25.20;;
50010;SDS011;35899;50.352;19.390;2023-12-04T07:36:31;56.20;;;23.40;;
50010;SDS011;35899;50.352;19.390;2023-12-04T07:38:58;68.70;;;25.90;;
50010;SDS011;35899;50.352;19.390;2023-12-04T07:41:25;74.20;;;26.90;;
50010;SDS011;35899;50.352;19.390;2023-12-04T07:43:52;83.70;;;29.00;;
50010;SDS011;35899;50.352;19.390;2023-12-04T07:46:19;76.90;;;29.90;;
50010;SDS011;35899;50.352;19.390;2023-12-04T07:48:46;68.50;;;28.90;;
50010;SDS011;35899;50.352;19.390;2023-12-04T07:51:14;79.90;;;30.70;;
50010;SDS011;35899;50.352;19.390;2023-12-04T07:53:40;91.90;;;29.80;;
50010;SDS011;35899;50.352;19.390;2023-12-04T07:56:07;76.10;;;27.40;;
50010;SDS011;35899;50.352;19.390;2023-12-04T07:58:37;68.50;;;25.90;;
50010;SDS011;35899;50.352;19.390;2023-12-04T08:01:04;63.10;;;25.90;;
50010;SDS011;35899;50.352;19.390;2023-12-04T08:03:31;52.80;;;21.70;;
50010;SDS011;35899;50.352;19.390;2023-12-04T08:05:58;56.50;;;22.90;;
50010;SDS011;35899;50.352;19.390;2023-12-04T08:08:25;51.30;;;22.00;;
50010;SDS011;35899;50.352;19.390;2023-12-04T08:10:52;48.80;;;21.70;;
50010;SDS011;35899;50.352;19.390;2023-12-04T08:13:19;58.00;;;20.60;;
50010;SDS011;35899;50.352;19.390;2023-12-04T08:15:54;121.90;;;26.00;;
50010;SDS011;35899;50.352;19.390;2023-12-04T08:18:21;67.40;;;24.30;;
50010;SDS011;35899;50.352;19.390;2023-12-04T08:20:48;93.20;;;24.80;;
50010;SDS011;35899;50.352;19.390;2023-12-04T08:23:17;79.10;;;27.90;;
50010;SDS011;35899;50.352;19.390;2023-12-04T08:25:44;57.00;;;22.50;;
50010;SDS011;35899;50.352;19.390;2023-12-04T08:28:11;69.10;;;26.00;;
50010;SDS011;35899;50.352;19.390;2023-12-04T08:30:38;77.10;;;26.50;;
50010;SDS011;35899;50.352;19.390;2023-12-04T08:33:05;74.10;;;26.40;;
50010;SDS011;35899;50.352;19.390;2023-12-04T08:35:33;69.20;;;25.80;;
50010;SDS011;35899;50.352;19.390;2023-12-04T08:37:59;56.60;;;23.50;;
50010;SDS011;35899;50.352;19.390;2023-12-04T08:40:26;60.70;;;24.60;;
50010;SDS011;35899;50.352;19.390;2023-12-04T08:42:53;58.60;;;23.30;;
50010;SDS011;35899;50.352;19.390;2023-12-04T08:45:20;57.10;;;23.60;;
50010;SDS011;35899;50.352;19.390;2023-12-04T08:47:47;58.80;;;22.40;;
50010;SDS011;35899;50.352;19.390;2023-12-04T08:50:17;68.80;;;26.20;;
50010;SDS011;35899;50.352;19.390;2023-12-04T08:52:46;72.00;;;25.50;;
50010;SDS011;35899;50.352;19.390;2023-12-04T08:55:13;69.50;;;27.50;;
50010;SDS011;35899;50.352;19.390;2023-12-04T08:57:40;87.90;;;29.90;;
50010;SDS011;35899;50.352;19.390;2023-12-04T09:00:07;115.10;;;32.40;;
50010;SDS011;35899;50.352;19.390;2023-12-04T09:02:35;100.80;;;33.50;;
50010;SDS011;35899;50.352;19.390;2023-12-04T09:05:15;116.30;;;34.10;;
50010;SDS011;35899;50.352;19.390;2023-12-04T09:07:42;136.40;;;36.90;;
50010;SDS011;35899;50.352;19.390;2023-12-04T09:10:29;147.30;;;37.90;;
50010;SDS011;35899;50.352;19.390;2023-12-04T09:13:18;121.90;;;38.90;;
50010;SDS011;35899;50.352;19.390;2023-12-04T09:15:45;116.00;;;37.70;;
50010;SDS011;35899;50.352;19.390;2023-12-04T09:18:18;100.30;;;37.90;;
50010;SDS011;35899;50.352;19.390;2023-12-04T09:20:46;87.20;;;35.50;;
50010;SDS011;35899;50.352;19.390;2023-12-04T09:23:13;80.30;;;32.80;;
50010;SDS011;35899;50.352;19.390;2023-12-04T09:25:40;73.50;;;33.70;;
50010;SDS011;35899;50.352;19.390;2023-12-04T09:28:14;73.90;;;34.70;;
50010;SDS011;35899;50.352;19.390;2023-12-04T09:30:41;77.50;;;36.20;;
50010;SDS011;35899;50.352;19.390;2023-12-04T09:33:08;74.60;;;35.80;;
50010;SDS011;35899;50.352;19.390;2023-12-04T09:35:35;82.00;;;39.50;;
50010;SDS011;35899;50.352;19.390;2023-12-04T09:38:02;84.30;;;40.80;;
50010;SDS011;35899;50.352;19.390;2023-12-04T09:40:32;85.00;;;41.70;;
50010;SDS011;35899;50.352;19.390;2023-12-04T09:42:59;91.30;;;45.80;;
50010;SDS011;35899;50.352;19.390;2023-12-04T09:45:26;92.00;;;46.50;;
50010;SDS011;35899;50.352;19.390;2023-12-04T09:47:55;84.60;;;45.40;;
50010;SDS011;35899;50.352;19.390;2023-12-04T09:50:23;87.70;;;45.90;;
50010;SDS011;35899;50.352;19.390;2023-12-04T09:52:50;92.00;;;50.20;;
50010;SDS011;35899;50.352;19.390;2023-12-04T09:55:18;87.80;;;47.60;;
50010;SDS011;35899;50.352;19.390;2023-12-04T09:57:45;79.20;;;44.50;;
50010;SDS011;35899;50.352;19.390;2023-12-04T10:00:13;78.70;;;44.40;;
50010;SDS011;35899;50.352;19.390;2023-12-04T10:02:40;77.40;;;41.90;;
50010;SDS011;35899;50.352;19.390;2023-12-04T10:05:07;75.50;;;42.00;;
50010;SDS011;35899;50.352;19.390;2023-12-04T10:07:35;72.40;;;41.80;;
50010;SDS011;35899;50.352;19.390;2023-12-04T10:10:03;75.40;;;42.20;;
50010;SDS011;35899;50.352;19.390;2023-12-04T10:12:32;73.20;;;40.60;;
50010;SDS011;35899;50.352;19.390;2023-12-04T10:15:06;66.30;;;40.20;;
50010;SDS011;35899;50.352;19.390;2023-12-04T10:17:37;68.80;;;41.00;;
50010;SDS011;35899;50.352;19.390;2023-12-04T10:20:11;71.20;;;43.60;;
50010;SDS011;35899;50.352;19.390;2023-12-04T10:23:00;73.40;;;43.30;;
50010;SDS011;35899;50.352;19.390;2023-12-04T10:25:28;73.70;;;44.10;;
50010;SDS011;35899;50.352;19.390;2023-12-04T10:28:10;73.80;;;42.70;;
50010;SDS011;35899;50.352;19.390;2023-12-04T10:30:39;72.80;;;44.30;;
50010;SDS011;35899;50.352;19.390;2023-12-04T10:33:06;66.10;;;41.30;;
50010;SDS011;35899;50.352;19.390;2023-12-04T10:35:37;69.40;;;41.30;;
50010;SDS011;35899;50.352;19.390;2023-12-04T10:38:05;65.60;;;41.10;;
50010;SDS011;35899;50.352;19.390;2023-12-04T10:40:34;64.40;;;40.00;;
50010;SDS011;35899;50.352;19.390;2023-12-04T10:45:35;57.50;;;37.40;;
50010;SDS011;35899;50.352;19.390;2023-12-04T10:48:04;56.40;;;36.20;;
50010;SDS011;35899;50.352;19.390;2023-12-04T10:50:32;55.60;;;35.60;;
50010;SDS011;35899;50.352;19.390;2023-12-04T10:53:01;54.90;;;35.70;;
50010;SDS011;35899;50.352;19.390;2023-12-04T10:55:35;51.30;;;32.90;;
50010;SDS011;35899;50.352;19.390;2023-12-04T10:58:04;43.90;;;28.90;;
50010;SDS011;35899;50.352;19.390;2023-12-04T11:00:33;49.60;;;32.40;;
50010;SDS011;35899;50.352;19.390;2023-12-04T11:03:03;51.30;;;33.70;;
50010;SDS011;35899;50.352;19.390;2023-12-04T11:05:35;41.70;;;27.90;;
50010;SDS011;35899;50.352;19.390;2023-12-04T11:08:05;39.60;;;26.60;;
50010;SDS011;35899;50.352;19.390;2023-12-04T11:10:58;31.00;;;22.30;;
50010;SDS011;35899;50.352;19.390;2023-12-04T11:13:29;36.70;;;24.60;;
50010;SDS011;35899;50.352;19.390;2023-12-04T11:16:09;39.30;;;24.20;;
50010;SDS011;35899;50.352;19.390;2023-12-04T11:18:44;47.20;;;26.00;;
50010;SDS011;35899;50.352;19.390;2023-12-04T11:21:20;25.20;;;17.40;;
50010;SDS011;35899;50.352;19.390;2023-12-04T11:23:48;40.50;;;23.20;;
50010;SDS011;35899;50.352;19.390;2023-12-04T11:26:16;28.90;;;19.60;;
50010;SDS011;35899;50.352;19.390;2023-12-04T11:28:46;27.10;;;18.50;;
50010;SDS011;35899;50.352;19.390;2023-12-04T11:31:14;23.40;;;17.10;;
50010;SDS011;35899;50.352;19.390;2023-12-04T11:33:45;61.50;;;29.90;;
50010;SDS011;35899;50.352;19.390;2023-12-04T11:36:12;20.20;;;14.70;;
50010;SDS011;35899;50.352;19.390;2023-12-04T11:38:48;23.30;;;15.20;;
50010;SDS011;35899;50.352;19.390;2023-12-04T11:41:18;16.90;;;13.40;;
50010;SDS011;35899;50.352;19.390;2023-12-04T11:43:52;16.40;;;13.20;;
50010;SDS011;35899;50.352;19.390;2023-12-04T11:46:25;18.70;;;14.00;;
50010;SDS011;35899;50.352;19.390;2023-12-04T11:48:53;20.50;;;14.50;;
50010;SDS011;35899;50.352;19.390;2023-12-04T11:51:53;63.10;;;34.20;;
50010;SDS011;35899;50.352;19.390;2023-12-04T11:54:22;25.20;;;16.50;;
50010;SDS011;35899;50.352;19.390;2023-12-04T11:59:37;17.20;;;12.60;;
50010;SDS011;35899;50.352;19.390;2023-12-04T12:02:08;23.40;;;16.20;;
50010;SDS011;35899;50.352;19.390;2023-12-04T12:04:40;15.60;;;12.20;;
50010;SDS011;35899;50.352;19.390;2023-12-04T12:07:07;29.10;;;18.30;;
50010;SDS011;35899;50.352;19.390;2023-12-04T12:09:34;23.80;;;14.80;;
50010;SDS011;35899;50.352;19.390;2023-12-04T12:12:02;27.10;;;17.00;;
50010;SDS011;35899;50.352;19.390;2023-12-04T12:14:30;18.20;;;11.20;;
50010;SDS011;35899;50.352;19.390;2023-12-04T12:16:58;19.10;;;13.10;;
50010;SDS011;35899;50.352;19.390;2023-12-04T12:19:26;22.20;;;13.90;;
50010;SDS011;35899;50.352;19.390;2023-12-04T12:21:55;17.20;;;11.10;;
50010;SDS011;35899;50.352;19.390;2023-12-04T12:24:25;28.10;;;17.30;;
50010;SDS011;35899;50.352;19.390;2023-12-04T12:26:52;16.60;;;11.30;;
50010;SDS011;35899;50.352;19.390;2023-12-04T12:29:20;17.50;;;12.00;;
50010;SDS011;35899;50.352;19.390;2023-12-04T12:31:50;15.40;;;11.90;;
50010;SDS011;35899;50.352;19.390;2023-12-04T12:34:17;14.90;;;11.40;;
50010;SDS011;35899;50.352;19.390;2023-12-04T12:36:44;19.50;;;14.10;;
50010;SDS011;35899;50.352;19.390;2023-12-04T12:39:11;16.30;;;11.30;;
50010;SDS011;35899;50.352;19.390;2023-12-04T12:41:38;15.00;;;10.60;;
50010;SDS011;35899;50.352;19.390;2023-12-04T12:44:04;16.50;;;10.70;;
50010;SDS011;35899;50.352;19.390;2023-12-04T12:46:32;17.90;;;14.90;;
50010;SDS011;35899;50.352;19.390;2023-12-04T12:49:00;14.40;;;10.60;;
50010;SDS011;35899;50.352;19.390;2023-12-04T12:51:27;25.60;;;16.20;;
50010;SDS011;35899;50.352;19.390;2023-12-04T12:53:56;18.20;;;13.00;;
50010;SDS011;35899;50.352;19.390;2023-12-04T12:56:24;17.70;;;12.70;;
50010;SDS011;35899;50.352;19.390;2023-12-04T12:58:55;15.90;;;11.50;;
50010;SDS011;35899;50.352;19.390;2023-12-04T13:04:18;22.70;;;14.30;;
50010;SDS011;35899;50.352;19.390;2023-12-04T13:06:45;19.50;;;12.10;;
50010;SDS011;35899;50.352;19.390;2023-12-04T13:09:15;18.30;;;12.40;;
50010;SDS011;35899;50.352;19.390;2023-12-04T13:11:42;19.70;;;13.40;;
50010;SDS011;35899;50.352;19.390;2023-12-04T13:14:09;26.50;;;15.30;;
50010;SDS011;35899;50.352;19.390;2023-12-04T13:16:36;28.30;;;16.40;;
50010;SDS011;35899;50.352;19.390;2023-12-04T13:19:03;43.50;;;23.00;;
50010;SDS011;35899;50.352;19.390;2023-12-04T13:21:31;30.00;;;16.20;;
50010;SDS011;35899;50.352;19.390;2023-12-04T13:23:58;27.70;;;14.00;;
50010;SDS011;35899;50.352;19.390;2023-12-04T13:26:28;71.30;;;26.20;;
50010;SDS011;35899;50.352;19.390;2023-12-04T13:28:55;100.50;;;37.40;;
50010;SDS011;35899;50.352;19.390;2023-12-04T13:31:25;54.70;;;23.50;;
50010;SDS011;35899;50.352;19.390;2023-12-04T13:33:55;56.40;;;25.40;;
50010;SDS011;35899;50.352;19.390;2023-12-04T13:36:22;43.30;;;22.60;;
50010;SDS011;35899;50.352;19.390;2023-12-04T13:38:49;38.30;;;19.00;;
50010;SDS011;35899;50.352;19.390;2023-12-04T13:41:16;29.20;;;15.50;;
50010;SDS011;35899;50.352;19.390;2023-12-04T13:43:43;27.50;;;14.90;;
50010;SDS011;35899;50.352;19.390;2023-12-04T13:46:15;24.40;;;14.30;;
50010;SDS011;35899;50.352;19.390;2023-12-04T13:48:44;33.60;;;16.80;;
50010;SDS011;35899;50.352;19.390;2023-12-04T13:51:11;36.80;;;16.80;;
50010;SDS011;35899;50.352;19.390;2023-12-04T13:53:42;38.00;;;17.40;;
50010;SDS011;35899;50.352;19.390;2023-12-04T13:56:09;36.00;;;17.60;;
50010;SDS011;35899;50.352;19.390;2023-12-04T13:58:36;39.20;;;19.60;;
50010;SDS011;35899;50.352;19.390;2023-12-04T14:01:03;45.40;;;21.40;;
50010;SDS011;35899;50.352;19.390;2023-12-04T14:03:31;46.30;;;22.70;;
50010;SDS011;35899;50.352;19.390;2023-12-04T14:05:58;46.50;;;23.20;;
50010;SDS011;35899;50.352;19.390;2023-12-04T14:08:28;49.50;;;23.20;;
50010;SDS011;35899;50.352;19.390;2023-12-04T14:10:58;48.90;;;23.40;;
50010;SDS011;35899;50.352;19.390;2023-12-04T14:13:25;52.20;;;25.40;;
50010;SDS011;35899;50.352;19.390;2023-12-04T14:15:54;59.10;;;27.20;;
50010;SDS011;35899;50.352;19.390;2023-12-04T14:18:23;56.30;;;24.50;;
50010;SDS011;35899;50.352;19.390;2023-12-04T14:20:51;53.40;;;25.40;;
50010;SDS011;35899;50.352;19.390;2023-12-04T14:23:18;56.20;;;25.10;;